createdAt,value
2022-10-24T00:08:10.369Z,100.00
2022-10-24T00:17:45.306Z,100.00
2022-10-24T00:27:18.994Z,100.00
2022-10-24T00:36:51.018Z,100.00
2022-10-24T00:46:26.623Z,100.00
2022-10-24T00:55:59.007Z,100.00
2022-10-24T01:05:34.374Z,100.00
2022-10-24T01:15:08.435Z,100.00
2022-10-24T01:24:40.859Z,100.00
2022-10-24T01:34:15.064Z,100.00
2022-10-24T01:43:49.417Z,100.00
2022-10-24T01:53:24.677Z,100.00
2022-10-24T02:02:58.021Z,100.00
2022-10-24T02:12:33.826Z,100.00
2022-10-24T02:22:06.300Z,100.00
2022-10-24T02:31:40.366Z,100.00
2022-10-24T02:41:15.826Z,100.00
2022-10-24T02:50:48.684Z,100.00
2022-10-24T03:00:23.366Z,100.00
2022-10-24T03:09:57.735Z,100.00
2022-10-24T03:19:33.558Z,100.00
2022-10-24T03:29:06.213Z,100.00
2022-10-24T03:38:39.829Z,100.00
2022-10-24T03:48:13.446Z,100.00
2022-10-24T03:57:48.255Z,100.00
2022-10-24T04:07:25.063Z,100.00
2022-10-24T04:16:57.185Z,100.00
2022-10-24T04:26:32.507Z,100.00
2022-10-24T04:36:07.193Z,100.00
2022-10-24T04:45:41.646Z,100.00
2022-10-24T04:55:15.600Z,100.00
2022-10-24T05:04:48.689Z,100.00
2022-10-24T05:14:22.934Z,100.00
2022-10-24T05:23:56.737Z,100.00
2022-10-24T05:33:28.998Z,100.00
2022-10-24T05:43:03.575Z,100.00
2022-10-24T05:52:37.449Z,100.00
2022-10-24T06:02:11.577Z,100.00
2022-10-24T06:11:45.303Z,100.00
2022-10-24T06:21:19.693Z,100.00
2022-10-24T06:30:54.090Z,100.00
2022-10-24T06:40:29.803Z,100.00
2022-10-24T06:50:03.093Z,100.00
2022-10-24T06:59:39.436Z,100.00
2022-10-24T07:09:14.305Z,100.00
2022-10-24T07:18:46.261Z,98.29
2022-10-24T07:28:19.849Z,97.83
2022-10-24T07:37:54.391Z,95.12
2022-10-24T07:47:27.902Z,95.52
2022-10-24T07:57:02.146Z,94.83
2022-10-24T08:06:35.724Z,94.00
2022-10-24T08:16:11.496Z,95.46
2022-10-24T08:25:45.592Z,96.09
2022-10-24T08:35:18.309Z,96.24
2022-10-24T08:44:54.377Z,93.85
2022-10-24T08:54:28.777Z,90.26
2022-10-24T09:04:00.976Z,86.49
2022-10-24T09:13:36.559Z,84.86
2022-10-24T09:14:38.989Z,84.92
2022-10-24T09:15:42.455Z,83.37
2022-10-24T09:16:45.858Z,82.91
2022-10-24T09:17:48.582Z,82.61
2022-10-24T09:18:52.381Z,83.16
2022-10-24T09:19:56.312Z,82.16
2022-10-24T09:29:27.363Z,79.66
2022-10-24T09:30:31.425Z,78.73
2022-10-24T09:31:32.308Z,78.28
2022-10-24T09:32:36.398Z,76.50
2022-10-24T09:33:38.779Z,75.02
2022-10-24T09:34:41.236Z,74.99
2022-10-24T09:35:45.295Z,76.49
2022-10-24T09:36:47.704Z,75.15
2022-10-24T09:37:51.368Z,75.86
2022-10-24T09:38:54.517Z,75.99
2022-10-24T09:39:57.883Z,76.37
2022-10-24T09:41:00.248Z,74.18
2022-10-24T09:42:02.748Z,73.58
2022-10-24T09:43:05.128Z,73.89
2022-10-24T09:44:07.614Z,73.41
2022-10-24T09:45:12.669Z,73.33
2022-10-24T09:46:16.543Z,74.01
2022-10-24T09:48:24.512Z,71.10
2022-10-24T09:49:24.957Z,72.55
2022-10-24T09:50:28.908Z,72.28
2022-10-24T09:51:31.307Z,73.58
2022-10-24T09:52:33.959Z,73.10
2022-10-24T09:53:37.963Z,72.77
2022-10-24T09:54:40.305Z,73.44
2022-10-24T09:55:44.273Z,73.69
2022-10-24T09:56:47.638Z,74.05
2022-10-24T10:06:20.873Z,71.37
2022-10-24T10:07:23.337Z,71.23
2022-10-24T10:08:25.727Z,71.75
2022-10-24T10:09:28.164Z,71.73
2022-10-24T10:10:32.233Z,70.13
2022-10-24T10:11:40.529Z,69.65
2022-10-24T10:12:37.946Z,69.26
2022-10-24T10:13:40.446Z,70.66
2022-10-24T10:14:44.550Z,70.20
2022-10-24T10:24:16.085Z,67.89
2022-10-24T10:25:18.592Z,67.89
2022-10-24T10:26:21.306Z,68.74
2022-10-24T10:27:24.509Z,67.90
2022-10-24T10:28:26.937Z,66.83
2022-10-24T10:29:29.413Z,66.51
2022-10-24T10:30:31.821Z,67.93
2022-10-24T10:31:35.311Z,67.78
2022-10-24T10:32:39.460Z,67.79
2022-10-24T10:33:41.986Z,66.16
2022-10-24T10:34:44.448Z,68.07
2022-10-24T10:35:47.170Z,66.34
2022-10-24T10:36:49.482Z,66.07
2022-10-24T10:37:51.972Z,66.18
2022-10-24T10:38:56.093Z,66.65
2022-10-24T10:48:29.422Z,58.77
2022-10-24T10:49:33.408Z,58.42
2022-10-24T10:50:35.693Z,56.07
2022-10-24T10:51:38.184Z,56.75
2022-10-24T10:52:40.642Z,58.27
2022-10-24T10:53:44.736Z,58.09
2022-10-24T10:54:47.121Z,57.70
2022-10-24T10:55:49.533Z,57.92
2022-10-24T10:56:53.621Z,57.44
2022-10-24T10:57:56.082Z,56.28
2022-10-24T10:58:58.441Z,55.04
2022-10-24T11:00:02.528Z,56.81
2022-10-24T11:01:04.999Z,57.34
2022-10-24T11:02:07.507Z,56.79
2022-10-24T11:03:09.876Z,56.93
2022-10-24T11:04:12.405Z,57.25
2022-10-24T11:05:16.446Z,58.65
2022-10-24T11:06:18.798Z,58.03
2022-10-24T11:07:21.186Z,58.46
2022-10-24T11:08:23.704Z,59.13
2022-10-24T11:09:26.217Z,58.10
2022-10-24T11:10:30.347Z,56.99
2022-10-24T11:11:32.694Z,58.04
2022-10-24T11:12:35.205Z,57.39
2022-10-24T11:13:37.718Z,56.55
2022-10-24T11:14:40.196Z,57.48
2022-10-24T11:15:42.624Z,58.19
2022-10-24T11:16:45.148Z,58.18
2022-10-24T11:17:47.890Z,57.53
2022-10-24T11:18:50.046Z,57.52
2022-10-24T11:19:52.548Z,57.94
2022-10-24T11:20:55.082Z,56.09
2022-10-24T11:21:59.114Z,56.05
2022-10-24T11:23:03.099Z,56.34
2022-10-24T11:24:06.052Z,54.79
2022-10-24T11:25:07.922Z,55.41
2022-10-24T11:26:10.456Z,55.69
2022-10-24T11:27:12.922Z,55.71
2022-10-24T11:28:15.356Z,56.44
2022-10-24T11:29:17.869Z,57.08
2022-10-24T11:30:20.350Z,56.82
2022-10-24T11:31:22.818Z,56.79
2022-10-24T11:32:27.911Z,56.42
2022-10-24T11:33:30.193Z,55.31
2022-10-24T11:34:32.677Z,55.00
2022-10-24T11:35:35.178Z,55.03
2022-10-24T11:36:37.636Z,54.11
2022-10-24T11:37:41.710Z,55.01
2022-10-24T11:38:44.000Z,54.73
2022-10-24T11:39:47.538Z,54.23
2022-10-24T11:40:50.930Z,54.36
2022-10-24T11:41:52.452Z,54.33
2022-10-24T11:42:56.486Z,53.94
2022-10-24T11:44:00.384Z,53.89
2022-10-24T11:45:02.795Z,54.55
2022-10-24T11:46:05.301Z,54.48
2022-10-24T11:47:09.352Z,54.22
2022-10-24T11:48:13.345Z,54.86
2022-10-24T11:49:15.642Z,55.82
2022-10-24T11:50:20.570Z,56.70
2022-10-24T11:51:22.177Z,57.42
2022-10-24T11:52:26.171Z,57.38
2022-10-24T11:53:28.564Z,57.48
2022-10-24T11:54:31.028Z,57.25
2022-10-24T11:55:35.088Z,56.41
2022-10-24T11:56:37.403Z,55.88
2022-10-24T11:57:39.898Z,56.99
2022-10-24T11:58:42.385Z,57.07
2022-10-24T11:59:44.847Z,56.90
2022-10-24T12:00:48.911Z,56.73
2022-10-24T12:01:51.252Z,56.52
2022-10-24T12:02:53.765Z,55.98
2022-10-24T12:03:57.764Z,56.52
2022-10-24T12:05:00.151Z,56.38
2022-10-24T12:06:02.599Z,56.98
2022-10-24T12:07:05.035Z,57.63
2022-10-24T12:08:09.144Z,57.71
2022-10-24T12:09:11.463Z,57.21
2022-10-24T12:10:13.949Z,57.27
2022-10-24T12:11:16.418Z,57.34
2022-10-24T12:12:18.929Z,56.63
2022-10-24T12:13:23.080Z,57.43
2022-10-24T12:14:27.021Z,58.07
2022-10-24T12:15:29.329Z,58.70
2022-10-24T12:16:33.427Z,59.82
2022-10-24T12:17:35.776Z,58.79
2022-10-24T12:18:39.833Z,59.32
2022-10-24T12:19:42.138Z,57.40
2022-10-24T12:20:44.619Z,57.17
2022-10-24T12:21:47.106Z,58.27
2022-10-24T12:22:49.664Z,57.10
2022-10-24T12:23:52.106Z,57.53
2022-10-24T12:24:54.613Z,58.27
2022-10-24T12:25:57.069Z,57.59
2022-10-24T12:26:59.534Z,57.76
2022-10-24T12:28:02.022Z,56.94
2022-10-24T12:29:06.101Z,56.77
2022-10-24T12:30:08.417Z,56.65
2022-10-24T12:31:10.949Z,57.54
2022-10-24T12:32:13.337Z,58.76
2022-10-24T12:33:15.842Z,57.26
2022-10-24T12:34:19.963Z,57.90
2022-10-24T12:35:30.230Z,58.58
2022-10-24T12:36:24.791Z,57.48
2022-10-24T12:37:28.789Z,59.46
2022-10-24T12:38:32.787Z,62.36
2022-10-24T12:39:35.074Z,58.81
2022-10-24T12:40:37.546Z,58.65
2022-10-24T12:41:41.601Z,58.20
2022-10-24T12:42:45.784Z,58.85
2022-10-24T12:43:47.929Z,58.70
2022-10-24T12:44:52.036Z,59.52
2022-10-24T12:45:54.338Z,58.37
2022-10-24T12:46:56.789Z,58.52
2022-10-24T12:47:59.334Z,58.80
2022-10-24T12:49:01.742Z,58.55
2022-10-24T12:50:04.184Z,59.72
2022-10-24T12:51:06.672Z,60.80
2022-10-24T12:52:09.193Z,59.00
2022-10-24T12:53:11.632Z,59.78
2022-10-24T12:54:14.099Z,57.74
2022-10-24T12:55:16.535Z,58.23
2022-10-24T12:57:21.548Z,57.36
2022-10-24T12:58:24.017Z,57.56
2022-10-24T12:59:26.433Z,56.55
2022-10-24T13:00:28.989Z,56.97
2022-10-24T13:01:32.644Z,56.95
2022-10-24T13:02:36.551Z,56.72
2022-10-24T13:03:38.863Z,56.92
2022-10-24T13:04:41.384Z,55.12
2022-10-24T13:05:43.832Z,54.91
2022-10-24T13:06:46.402Z,56.67
2022-10-24T13:07:50.532Z,56.84
2022-10-24T13:08:51.212Z,54.87
2022-10-24T13:09:55.340Z,54.74
2022-10-24T13:10:59.288Z,54.40
2022-10-24T13:12:01.685Z,55.00
2022-10-24T13:13:04.161Z,55.40
2022-10-24T13:14:08.126Z,55.83
2022-10-24T13:15:12.090Z,56.89
2022-10-24T13:16:16.021Z,56.80
2022-10-24T13:17:18.296Z,55.48
2022-10-24T13:18:20.754Z,55.54
2022-10-24T13:19:25.043Z,56.22
2022-10-24T13:20:27.409Z,55.59
2022-10-24T13:21:29.882Z,56.52
2022-10-24T13:22:32.385Z,55.22
2022-10-24T13:23:34.791Z,54.51
2022-10-24T13:24:37.303Z,53.35
2022-10-24T13:25:39.782Z,53.28
2022-10-24T13:26:43.919Z,54.29
2022-10-24T13:27:46.185Z,54.47
2022-10-24T13:28:50.257Z,55.62
2022-10-24T13:29:52.572Z,53.99
2022-10-24T13:30:55.149Z,53.96
2022-10-24T13:31:59.127Z,54.15
2022-10-24T13:33:03.054Z,53.87
2022-10-24T13:34:05.404Z,54.77
2022-10-24T13:35:09.487Z,54.12
2022-10-24T13:36:11.878Z,54.34
2022-10-24T13:37:14.382Z,54.29
2022-10-24T13:38:16.882Z,54.43
2022-10-24T13:39:20.839Z,54.54
2022-10-24T13:40:24.760Z,55.16
2022-10-24T13:41:27.085Z,54.04
2022-10-24T13:42:32.918Z,55.01
2022-10-24T13:43:36.051Z,54.46
2022-10-24T13:44:39.996Z,54.02
2022-10-24T13:45:43.964Z,54.66
2022-10-24T13:46:47.832Z,54.38
2022-10-24T13:47:48.827Z,54.81
2022-10-24T13:48:51.267Z,54.95
2022-10-24T13:49:53.692Z,55.47
2022-10-24T13:50:57.728Z,55.45
2022-10-24T13:52:00.116Z,55.04
2022-10-24T13:53:02.581Z,54.64
2022-10-24T13:54:05.051Z,55.68
2022-10-24T13:55:07.557Z,55.68
2022-10-24T13:56:10.048Z,56.20
2022-10-24T13:57:12.523Z,56.40
2022-10-24T13:58:15.001Z,56.91
2022-10-24T13:59:19.151Z,59.39
2022-10-24T14:00:21.549Z,58.08
2022-10-24T14:01:24.098Z,57.61
2022-10-24T14:02:28.352Z,57.84
2022-10-24T14:03:30.556Z,56.66
2022-10-24T14:04:32.937Z,57.11
2022-10-24T14:05:35.408Z,56.69
2022-10-24T14:06:37.854Z,55.67
2022-10-24T14:07:40.355Z,54.99
2022-10-24T14:08:42.852Z,54.51
2022-10-24T14:09:47.102Z,54.19
2022-10-24T14:10:49.339Z,55.13
2022-10-24T14:11:51.815Z,54.71
2022-10-24T14:12:55.845Z,55.35
2022-10-24T14:14:00.342Z,54.37
2022-10-24T14:15:02.289Z,54.33
2022-10-24T14:16:06.277Z,54.22
2022-10-24T14:17:08.606Z,55.31
2022-10-24T14:18:11.150Z,56.20
2022-10-24T14:19:15.434Z,54.94
2022-10-24T14:20:16.111Z,55.57
2022-10-24T14:21:18.594Z,55.13
2022-10-24T14:22:22.656Z,54.94
2022-10-24T14:23:24.933Z,54.88
2022-10-24T14:24:27.424Z,55.79
2022-10-24T14:25:29.966Z,56.21
2022-10-24T14:26:32.466Z,54.80
2022-10-24T14:27:34.900Z,55.75
2022-10-24T14:28:37.438Z,56.10
2022-10-24T14:29:39.829Z,56.06
2022-10-24T14:30:42.400Z,56.68
2022-10-24T14:31:46.455Z,55.12
2022-10-24T14:32:48.781Z,56.07
2022-10-24T14:33:52.873Z,55.47
2022-10-24T14:34:55.208Z,56.25
2022-10-24T14:35:59.270Z,56.15
2022-10-24T14:37:01.705Z,55.00
2022-10-24T14:38:08.898Z,55.32
2022-10-24T14:39:08.163Z,54.75
2022-10-24T14:40:10.585Z,54.90
2022-10-24T14:41:13.047Z,55.18
2022-10-24T14:42:17.185Z,55.69
2022-10-24T14:44:23.628Z,55.95
2022-10-24T14:45:26.005Z,55.19
2022-10-24T14:46:28.435Z,55.76
2022-10-24T14:47:32.485Z,57.03
2022-10-24T14:48:34.956Z,56.69
2022-10-24T14:49:37.464Z,58.30
2022-10-24T14:50:39.886Z,58.03
2022-10-24T14:51:42.432Z,56.82
2022-10-24T14:52:45.312Z,56.28
2022-10-24T14:53:47.535Z,56.48
2022-10-24T14:54:50.023Z,56.75
2022-10-24T14:55:52.470Z,57.04
2022-10-24T14:56:55.987Z,56.13
2022-10-24T14:57:58.325Z,55.85
2022-10-24T14:59:00.780Z,56.78
2022-10-24T15:00:05.021Z,57.33
2022-10-24T15:01:07.325Z,56.78
2022-10-24T15:02:09.755Z,57.08
2022-10-24T15:03:13.838Z,56.85
2022-10-24T15:04:16.138Z,55.92
2022-10-24T15:05:18.545Z,56.73
2022-10-24T15:06:21.015Z,57.29
2022-10-24T15:07:23.470Z,57.70
2022-10-24T15:08:25.909Z,56.11
2022-10-24T15:09:30.007Z,57.44
2022-10-24T15:10:32.370Z,55.89
2022-10-24T15:11:34.811Z,56.71
2022-10-24T15:12:37.357Z,56.31
2022-10-24T15:13:39.788Z,56.10
2022-10-24T15:14:42.222Z,56.48
2022-10-24T15:15:44.653Z,55.86
2022-10-24T15:16:48.771Z,56.17
2022-10-24T15:17:51.118Z,56.38
2022-10-24T15:18:53.631Z,56.98
2022-10-24T15:19:56.083Z,56.62
2022-10-24T15:20:58.571Z,56.94
2022-10-24T15:22:01.023Z,56.53
2022-10-24T15:23:03.422Z,56.56
2022-10-24T15:24:05.911Z,57.39
2022-10-24T15:25:08.518Z,57.50
2022-10-24T15:26:10.916Z,57.39
2022-10-24T15:27:13.376Z,57.50
2022-10-24T15:28:15.884Z,57.22
2022-10-24T15:29:18.349Z,58.42
2022-10-24T15:30:20.835Z,57.49
2022-10-24T15:31:23.273Z,57.21
2022-10-24T15:32:25.737Z,57.53
2022-10-24T15:33:28.182Z,57.99
2022-10-24T15:34:32.201Z,58.17
2022-10-24T15:35:34.498Z,57.56
2022-10-24T15:36:38.520Z,57.63
2022-10-24T15:37:40.922Z,58.19
2022-10-24T15:38:43.365Z,58.04
2022-10-24T15:39:45.848Z,58.56
2022-10-24T15:40:48.337Z,59.15
2022-10-24T15:41:52.600Z,59.08
2022-10-24T15:42:54.729Z,59.15
2022-10-24T15:43:57.136Z,59.68
2022-10-24T15:45:01.183Z,59.43
2022-10-24T15:46:05.146Z,59.34
2022-10-24T15:47:07.601Z,59.59
2022-10-24T15:48:10.073Z,59.38
2022-10-24T15:49:12.526Z,59.61
2022-10-24T15:50:15.042Z,59.98
2022-10-24T15:51:17.458Z,60.25
2022-10-24T15:52:21.493Z,60.69
2022-10-24T16:01:51.919Z,62.40
2022-10-24T16:02:54.311Z,62.42
2022-10-24T16:03:58.368Z,62.41
2022-10-24T16:05:00.748Z,62.25
2022-10-24T16:06:03.180Z,62.58
2022-10-24T16:08:09.596Z,62.58
2022-10-24T16:17:43.898Z,64.60
2022-10-24T16:27:18.601Z,66.52
2022-10-24T16:36:49.422Z,67.39
2022-10-24T16:46:22.920Z,67.39
2022-10-24T16:55:57.393Z,67.95
2022-10-24T17:05:31.287Z,68.46
2022-10-24T17:15:04.199Z,69.33
2022-10-24T17:24:37.013Z,71.03
2022-10-24T17:34:11.106Z,71.77
2022-10-24T17:43:43.429Z,72.10
2022-10-24T17:53:17.821Z,72.27
2022-10-24T18:02:52.274Z,72.58
2022-10-24T18:12:26.679Z,72.23
2022-10-24T18:22:00.815Z,72.60
2022-10-24T18:31:36.394Z,73.64
2022-10-24T18:41:08.643Z,73.62
2022-10-24T18:50:42.546Z,73.65
2022-10-24T19:00:17.139Z,73.94
2022-10-24T19:09:52.958Z,73.76
2022-10-24T19:19:24.872Z,74.39
2022-10-24T19:29:02.243Z,73.97
2022-10-24T19:38:35.639Z,75.10
2022-10-24T19:48:09.129Z,75.49
2022-10-24T19:57:41.220Z,76.26
2022-10-24T20:07:14.825Z,77.08
2022-10-24T20:16:48.774Z,78.44
2022-10-24T20:26:22.700Z,79.13
2022-10-24T20:35:56.262Z,79.86
2022-10-24T20:45:31.954Z,80.59
2022-10-24T20:55:04.919Z,80.86
2022-10-24T21:04:39.363Z,80.89
2022-10-24T21:14:11.413Z,80.43
2022-10-24T21:23:45.655Z,80.16
2022-10-24T21:33:21.455Z,80.05
2022-10-24T21:42:55.188Z,80.27
2022-10-24T21:52:27.261Z,80.07
2022-10-24T22:02:01.858Z,79.79
2022-10-24T22:11:37.667Z,80.08
2022-10-24T22:21:09.859Z,80.70
2022-10-24T22:30:45.214Z,81.27
2022-10-24T22:40:19.417Z,81.33
2022-10-24T22:49:53.473Z,81.68
2022-10-24T22:59:25.681Z,82.66
2022-10-24T23:08:59.354Z,82.77
2022-10-24T23:18:35.030Z,82.80
2022-10-24T23:28:09.115Z,83.14
2022-10-24T23:37:43.042Z,84.01
2022-10-24T23:47:17.058Z,84.70
2022-10-24T23:56:51.146Z,85.72
